Greater Kankakee Airport
KIKK : now visible

Airfield :











YOU CAN JOIN US ON...

 
LOGIN :

Register | Disclaimer

   EN    FR    IT 

 









Legend :    VFR   Marginal VFR   IFR   Intensive IFR   Very Intensive IFR
Visi :
Ceiling :
>= 8 km
>= 3000ft
5 to 8 km
1000 to 3000 ft
1500m to 5 km
500 to 1000 ft
800 to 1500m
200 to 500 ft
< 800m
< 200 ft
Symbols :   Thunderstorms  Fog  Heavy snow  Heavy precipitations  Wind > 20 kt







- Airport Elevation : 630 ft


KIKK - Greater Kankakee

CURRENT METAR :
  • 191555Z AUTO 03019G27KT 10SM OVC018 07/03 A2982 RMK AO2 T00660026

EXPIRED METARs :
  • 191535Z AUTO 01018G24KT 10SM OVC018 06/03 A2981 RMK AO2 T00640025
  • 191515Z AUTO 01017G24KT 10SM OVC018 06/03 A2981 RMK AO2 T00600025
  • 191455Z AUTO 02019G28KT 10SM OVC018 06/02 A2981 RMK AO2 T00600024
  • 191435Z AUTO 01020G27KT 10SM OVC016 06/03 A2980 RMK AO2 T00570025
  • 191415Z AUTO 02023G28KT 10SM OVC016 06/02 A2979 RMK AO2 T00550024
  • 191355Z AUTO 02017G25KT 10SM OVC018 06/02 A2979 RMK AO2 T00550021
  • 191335Z AUTO 02015G25KT 10SM OVC018 06/02 A2979 RMK AO2 T00550022
  • 191315Z AUTO 01015G26KT 10SM OVC020 06/02 A2977 RMK AO2 T00550021

TAF N/A
KZAU FIR / North America



MET'MAP, your aeronautical weather chart ! - Copyright ORBIFLY December 2007 - Disclaimer

ORBIFLY MET'MAP TEAM :

Programming & Development : Alexandra Zaïnal
Concept & Development : Baudouin d'Aumeries
Co-Development & Prog : Marc-Olivier Méhu
Technical & hardware support : Manuel Goepfert

Contact : metmap@orbifly.com




SOURCES & CREDITS :

   NOAA       Earth
Advisory